Time;durP1;ratioP1;P1;durP2;ratioP2;P2;SDS_P1;SDS_P2;PMS_P1;PMS_P2;Temp;Humidity;BMP_temperature;BMP_pressure;BME280_temperature;BME280_humidity;BME280_pressure;Samples;Min_cycle;Max_cycle;Signal;HPM_P1;HPM_P2
2021/06/02 00:00:41;;;;;;;16.50;4.55;;;;;;;10.31;49.25;99815.19;4959430;28;20050;-69
2021/06/02 00:03:13;;;;;;;13.25;3.85;;;;;;;10.27;49.35;99819.53;4959661;28;20516;-68
2021/06/02 00:05:40;;;;;;;14.60;4.25;;;;;;;10.27;49.56;99821.47;4960965;28;20046;-70
2021/06/02 00:08:08;;;;;;;13.18;3.70;;;;;;;10.27;49.55;99816.00;4958937;28;20121;-69
2021/06/02 00:10:34;;;;;;;14.35;3.55;;;;;;;10.21;49.60;99823.34;4960517;28;20044;-69
2021/06/02 00:13:01;;;;;;;17.20;4.18;;;;;;;10.17;49.98;99817.59;4961093;28;20062;-68
2021/06/02 00:15:28;;;;;;;16.98;3.83;;;;;;;10.18;50.01;99826.63;4962023;28;20130;-68
2021/06/02 00:17:55;;;;;;;9.75;3.58;;;;;;;10.12;50.04;99819.50;4960402;28;20058;-67
2021/06/02 00:20:22;;;;;;;10.15;3.60;;;;;;;10.07;50.45;99823.09;4960012;28;20047;-68
2021/06/02 00:22:48;;;;;;;9.90;3.60;;;;;;;10.10;50.21;99822.53;4960474;28;20285;-70
2021/06/02 00:25:15;;;;;;;13.25;3.30;;;;;;;10.05;50.51;99819.78;4961103;28;20046;-69
2021/06/02 00:27:41;;;;;;;11.82;3.47;;;;;;;10.04;50.62;99818.13;4960972;28;20051;-68
2021/06/02 00:30:10;;;;;;;20.23;3.58;;;;;;;10.04;50.64;99818.13;4961443;28;20043;-69
2021/06/02 00:32:37;;;;;;;11.40;3.53;;;;;;;10.01;50.77;99821.41;4960078;28;20496;-69
2021/06/02 00:35:06;;;;;;;14.55;3.83;;;;;;;10.04;50.57;99823.59;4960930;28;20077;-69
2021/06/02 00:37:34;;;;;;;11.60;3.30;;;;;;;10.04;50.68;99818.97;4972253;28;20058;-70
2021/06/02 00:40:01;;;;;;;12.98;3.38;;;;;;;10.04;50.82;99820.88;4961406;28;20086;-69
2021/06/02 00:42:30;;;;;;;19.90;3.40;;;;;;;10.07;50.81;99821.16;4959956;28;20057;-69
2021/06/02 00:44:56;;;;;;;14.18;3.63;;;;;;;10.06;51.03;99818.69;4965051;28;20046;-70
2021/06/02 00:47:23;;;;;;;16.58;3.63;;;;;;;10.06;50.87;99822.25;4961528;28;20612;-68
2021/06/02 00:49:50;;;;;;;11.98;3.42;;;;;;;10.08;50.79;99824.72;4961928;28;20059;-67
2021/06/02 00:52:16;;;;;;;13.97;3.20;;;;;;;10.02;51.29;99823.88;4966570;28;20042;-68
2021/06/02 00:54:44;;;;;;;11.77;3.80;;;;;;;9.99;51.46;99829.91;4974864;28;20055;-69
2021/06/02 00:57:12;;;;;;;;;;;;;;;9.94;51.47;99832.59;4976685;28;20057;-68
2021/06/02 00:59:41;;;;;;;10.00;3.30;;;;;;;9.96;51.50;99830.41;4961121;28;19930;-69
2021/06/02 01:02:11;;;;;;;11.98;3.40;;;;;;;9.98;51.68;99830.97;4960909;28;20059;-69
2021/06/02 01:04:38;;;;;;;16.67;3.42;;;;;;;9.95;51.80;99827.97;4961712;28;20443;-69
2021/06/02 01:07:06;;;;;;;13.77;3.20;;;;;;;9.93;51.78;99820.88;4961062;28;20051;-68
2021/06/02 01:09:34;;;;;;;13.05;3.50;;;;;;;9.91;51.93;99816.75;4960574;28;20055;-68
2021/06/02 01:12:09;;;;;;;12.13;3.38;;;;;;;9.91;51.95;99811.28;4961915;28;20154;-69
2021/06/02 01:14:38;;;;;;;14.02;3.67;;;;;;;9.90;52.14;99806.94;4961492;28;20050;-69
2021/06/02 01:17:06;;;;;;;12.57;3.53;;;;;;;9.88;52.17;99820.03;4963060;28;20579;-70
2021/06/02 01:19:32;;;;;;;18.95;3.85;;;;;;;9.91;52.26;99823.06;4964075;28;20046;-71
2021/06/02 01:22:01;;;;;;;13.27;3.50;;;;;;;9.88;52.47;99820.03;4964078;28;20504;-68
2021/06/02 01:24:29;;;;;;;16.35;3.60;;;;;;;9.83;52.60;99817.28;4964833;28;20094;-69
2021/06/02 01:26:57;;;;;;;12.43;3.45;;;;;;;9.82;52.62;99818.34;4964911;28;20142;-70
2021/06/02 01:29:24;;;;;;;10.20;3.53;;;;;;;9.84;52.58;99817.00;4964216;28;20059;-70
2021/06/02 01:32:09;;;;;;;12.82;3.55;;;;;;;9.82;52.75;99819.19;4964518;28;20094;-69
2021/06/02 01:35:03;;;;;;;12.80;3.67;;;;;;;9.85;52.77;99815.91;4963893;28;20051;-69
2021/06/02 01:37:47;;;;;;;15.68;3.67;;;;;;;9.90;52.82;99824.13;4963519;28;20047;-69
2021/06/02 01:40:33;;;;;;;13.23;4.30;;;;;;;9.95;52.39;99823.31;4964042;28;20050;-69
2021/06/02 01:43:26;;;;;;;13.85;3.47;;;;;;;10.00;52.51;99826.06;4962840;28;20137;-69
2021/06/02 01:46:11;;;;;;;13.80;3.60;;;;;;;10.02;52.48;99815.69;4963669;28;20050;-69
2021/06/02 01:48:55;;;;;;;18.15;4.25;;;;;;;10.05;52.30;99819.78;4962587;28;20142;-69
2021/06/02 01:52:07;;;;;;;13.10;3.80;;;;;;;9.90;52.80;99823.31;4962783;28;20142;-68
2021/06/02 01:55:20;;;;;;;15.30;3.58;;;;;;;9.87;52.97;99826.59;4964851;28;20063;-69
2021/06/02 01:58:23;;;;;;;12.80;3.78;;;;;;;9.92;52.68;99818.41;4941720;28;20467;-69
2021/06/02 02:01:08;;;;;;;13.15;3.63;;;;;;;9.85;52.99;99823.31;4963577;28;20043;-69
2021/06/02 02:04:08;;;;;;;13.35;3.95;;;;;;;9.94;52.86;99821.66;4964632;28;20620;-69
2021/06/02 02:07:12;;;;;;;21.42;4.18;;;;;;;9.95;52.88;99819.78;4960737;28;20063;-69
2021/06/02 02:09:58;;;;;;;14.38;3.60;;;;;;;9.99;52.92;99820.88;4963316;28;20059;-67
2021/06/02 02:12:38;;;;;;;11.52;3.53;;;;;;;9.92;52.86;99832.88;4964191;28;20554;-69
2021/06/02 02:15:12;;;;;;;11.02;3.30;;;;;;;9.85;53.16;99818.66;4962214;28;20042;-68
2021/06/02 02:18:14;;;;;;;14.75;3.45;;;;;;;9.84;53.42;99822.47;4963846;28;20050;-68
2021/06/02 02:20:46;;;;;;;11.75;3.55;;;;;;;9.86;53.51;99819.50;4962989;28;20058;-69
2021/06/02 02:23:24;;;;;;;13.10;3.47;;;;;;;9.96;52.98;99827.69;4961950;28;20050;-69
2021/06/02 02:25:56;;;;;;;12.32;3.92;;;;;;;10.01;53.19;99824.97;4963133;28;20038;-69
2021/06/02 02:28:50;;;;;;;10.32;3.90;;;;;;;10.17;52.49;99827.72;4962509;28;20079;-69
2021/06/02 02:31:30;;;;;;;19.38;4.10;;;;;;;10.24;52.55;99814.63;4962688;28;20058;-70
2021/06/02 02:34:01;;;;;;;14.85;3.90;;;;;;;10.28;52.28;99812.16;4963712;28;20047;-70
2021/06/02 02:36:30;;;;;;;14.15;3.60;;;;;;;10.35;52.56;99807.22;4975017;28;20061;-69
2021/06/02 02:39:04;;;;;;;13.25;3.50;;;;;;;10.35;52.25;99826.38;4963444;28;20098;-71
2021/06/02 02:41:48;;;;;;;14.60;4.30;;;;;;;10.46;52.17;99822.56;4962140;28;20047;-70
2021/06/02 02:44:39;;;;;;;16.85;3.70;;;;;;;10.45;52.25;99815.47;4961270;28;20047;-70
2021/06/02 02:47:12;;;;;;;11.05;3.92;;;;;;;10.58;51.71;99825.03;4962211;28;20054;-71
2021/06/02 02:49:52;;;;;;;13.35;3.78;;;;;;;10.61;51.81;99819.03;4978167;28;20046;-68
2021/06/02 02:52:26;;;;;;;12.13;3.88;;;;;;;10.72;51.91;99833.50;4976574;28;20110;-69
2021/06/02 02:55:00;;;;;;;19.52;3.85;;;;;;;10.72;51.79;99832.69;4962790;28;20050;-69
2021/06/02 02:57:32;;;;;;;11.43;3.88;;;;;;;10.69;51.77;99819.56;4962911;28;20062;-68
2021/06/02 03:00:06;;;;;;;11.98;3.55;;;;;;;10.55;52.26;99803.72;4966585;28;20051;-69
2021/06/02 03:02:39;;;;;;;13.70;3.88;;;;;;;10.61;52.23;99819.03;4964097;28;20521;-69
2021/06/02 03:05:12;;;;;;;11.43;3.55;;;;;;;10.77;51.85;99819.00;4962458;28;20062;-70
2021/06/02 03:07:45;;;;;;;18.50;3.80;;;;;;;10.82;51.82;99824.47;4961298;28;20516;-68
2021/06/02 03:10:14;;;;;;;10.30;3.30;;;;;;;10.66;52.10;99817.38;4961581;28;20177;-67
2021/06/02 03:12:51;;;;;;;15.73;4.10;;;;;;;10.73;52.14;99826.94;4963119;28;20074;-69
2021/06/02 03:15:42;;;;;;;12.80;4.00;;;;;;;10.77;52.01;99832.66;4962442;28;20035;-68
2021/06/02 03:18:43;;;;;;;12.40;3.95;;;;;;;10.83;51.75;99814.34;4946547;28;20047;-68
2021/06/02 03:21:19;;;;;;;13.77;4.75;;;;;;;10.85;51.71;99826.66;4949040;28;20062;-68
2021/06/02 03:23:59;;;;;;;15.52;3.90;;;;;;;10.94;51.80;99829.63;4961335;28;20077;-69
2021/06/02 03:26:29;;;;;;;14.05;3.95;;;;;;;11.04;51.32;99831.53;4974263;28;20399;-69
2021/06/02 03:29:01;;;;;;;16.58;3.97;;;;;;;10.99;51.39;99828.81;4961792;28;20051;-70
2021/06/02 03:31:47;;;;;;;13.05;3.78;;;;;;;10.97;51.21;99828.28;4962321;28;20070;-68
2021/06/02 03:34:22;;;;;;;13.73;3.78;;;;;;;11.05;50.75;99836.75;4962336;28;20452;-69
2021/06/02 03:37:07;;;;;;;12.73;3.65;;;;;;;11.12;50.90;99830.16;4960984;28;20082;-68
2021/06/02 03:39:48;;;;;;;12.23;3.28;;;;;;;11.04;50.94;99831.53;4940268;28;20047;-69
2021/06/02 03:42:24;;;;;;;11.65;3.92;;;;;;;11.13;50.81;99832.63;4962024;28;20051;-69
2021/06/02 03:45:02;;;;;;;13.25;3.67;;;;;;;11.13;50.53;99824.41;4961700;28;20089;-70
2021/06/02 03:47:42;;;;;;;16.05;4.10;;;;;;;11.24;50.01;99836.13;4961035;28;20141;-70
2021/06/02 03:50:14;;;;;;;19.13;4.68;;;;;;;11.39;50.35;99838.00;4962003;28;20106;-69
2021/06/02 03:53:14;;;;;;;13.63;3.70;;;;;;;11.37;49.72;99844.88;4960188;28;20051;-68
2021/06/02 03:55:48;;;;;;;15.95;3.63;;;;;;;11.45;49.92;99856.06;4961853;28;20047;-68
2021/06/02 03:58:31;;;;;;;17.38;3.88;;;;;;;11.48;50.14;99854.69;4975503;28;20055;-70
2021/06/02 04:01:08;;;;;;;15.57;4.00;;;;;;;11.55;50.10;99860.66;4962038;28;20101;-69
2021/06/02 04:03:54;;;;;;;11.93;4.22;;;;;;;11.63;49.92;99854.63;4959464;28;20066;-67
2021/06/02 04:06:26;;;;;;;18.70;4.40;;;;;;;11.73;50.07;99869.34;4964779;28;20329;-69
2021/06/02 04:08:59;;;;;;;12.10;3.30;;;;;;;11.84;49.50;99860.00;4961709;28;20133;-69
2021/06/02 04:11:35;;;;;;;19.70;3.90;;;;;;;11.91;49.03;99860.50;4961457;28;20051;-69
2021/06/02 04:14:03;;;;;;;15.05;4.63;;;;;;;11.95;49.45;99857.22;4960651;28;20431;-71
2021/06/02 04:16:32;;;;;;;11.32;3.45;;;;;;;12.09;48.69;99860.97;4961687;28;20050;-69
2021/06/02 04:19:05;;;;;;;14.63;3.40;;;;;;;12.21;48.42;99879.84;4961720;28;20051;-71
2021/06/02 04:21:33;;;;;;;10.32;3.05;;;;;;;12.20;47.59;99869.97;4961479;28;20440;-69
2021/06/02 04:24:02;;;;;;;12.80;3.55;;;;;;;12.28;48.42;99874.03;4961610;28;20050;-68
2021/06/02 04:26:32;;;;;;;14.23;3.40;;;;;;;12.42;47.57;99880.50;4976691;28;20491;-68
2021/06/02 04:29:00;;;;;;;11.80;3.35;;;;;;;12.32;46.70;99864.13;4960758;28;20142;-69
2021/06/02 04:31:28;;;;;;;10.88;3.20;;;;;;;12.37;46.56;99864.06;4964870;28;20053;-70
2021/06/02 04:33:55;;;;;;;;;;;;;;;12.55;46.39;99873.56;4962275;28;20059;-70
2021/06/02 04:36:24;;;;;;;15.43;3.08;;;;;;;12.52;46.13;99884.28;4960854;28;20018;-70
2021/06/02 04:38:54;;;;;;;8.70;3.10;;;;;;;12.67;45.97;99888.84;4959782;28;20047;-70
2021/06/02 04:41:22;;;;;;;10.98;2.80;;;;;;;12.50;45.56;99878.25;4961705;28;20693;-71
2021/06/02 04:43:49;;;;;;;11.65;2.90;;;;;;;12.70;45.33;99888.25;4961076;28;20047;-70
2021/06/02 04:46:19;;;;;;;15.38;2.88;;;;;;;12.80;44.55;99888.19;4962141;28;20049;-68
2021/06/02 04:48:45;;;;;;;12.90;2.53;;;;;;;12.93;44.14;99900.41;4960251;28;20042;-69
2021/06/02 04:51:39;;;;;;;12.23;2.92;;;;;;;12.96;43.89;99894.34;4962572;28;20043;-71
2021/06/02 04:54:38;;;;;;;12.68;2.63;;;;;;;13.03;43.59;99886.59;4964334;28;20043;-69
2021/06/02 04:57:54;;;;;;;24.45;4.00;;;;;;;13.18;43.62;99893.84;4941258;28;20058;-71
2021/06/02 05:00:50;;;;;;;23.80;3.83;;;;;;;13.30;43.29;99892.66;4963697;28;20047;-69
2021/06/02 05:03:52;;;;;;;10.60;2.97;;;;;;;13.36;43.00;99898.91;4964996;28;20062;-72
2021/06/02 05:06:49;;;;;;;11.77;3.00;;;;;;;13.38;43.05;99902.97;4977928;28;20046;-69
2021/06/02 05:09:42;;;;;;;18.98;2.95;;;;;;;13.44;42.37;99915.59;4965922;28;20042;-70
2021/06/02 05:12:58;;;;;;;12.57;2.58;;;;;;;13.54;41.55;99914.66;4963783;28;20132;-70
2021/06/02 05:15:59;;;;;;;9.40;2.28;;;;;;;13.54;41.46;99917.41;4963440;28;20066;-70
2021/06/02 05:18:59;;;;;;;12.52;2.50;;;;;;;13.65;40.99;99918.09;4941226;28;20051;-71
2021/06/02 05:22:07;;;;;;;7.40;2.00;;;;;;;13.75;40.33;99911.66;4933101;28;20066;-70
2021/06/02 05:25:17;;;;;;;10.43;2.53;;;;;;;13.79;40.27;99915.44;4963588;28;20039;-72
2021/06/02 05:28:20;;;;;;;9.82;2.25;;;;;;;13.85;39.91;99939.03;4933766;28;20058;-71
2021/06/02 05:31:31;;;;;;;13.32;2.47;;;;;;;13.90;39.36;99918.91;4968157;28;20058;-68
2021/06/02 05:34:42;;;;;;;10.60;1.98;;;;;;;13.94;39.67;99919.94;4964212;28;20105;-69
2021/06/02 05:37:32;;;;;;;10.73;2.45;;;;;;;13.99;39.60;99947.38;4964679;28;20047;-70
2021/06/02 05:40:32;;;;;;;8.60;2.10;;;;;;;14.04;39.08;99928.03;4920496;28;20055;-70
2021/06/02 05:43:30;;;;;;;14.57;2.22;;;;;;;14.12;39.06;99934.81;4963840;28;20137;-70
2021/06/02 05:46:35;;;;;;;11.07;2.30;;;;;;;14.29;39.42;99936.28;4945933;28;20425;-69
2021/06/02 05:49:30;;;;;;;12.25;1.98;;;;;;;14.25;38.69;99926.97;4966644;28;20043;-70
2021/06/02 05:52:09;;;;;;;8.15;2.30;;;;;;;14.40;39.07;99929.50;4964141;28;20051;-69
2021/06/02 05:55:17;;;;;;;13.68;2.38;;;;;;;14.52;38.79;99922.72;4963471;28;20439;-70
2021/06/02 05:58:28;;;;;;;14.23;2.65;;;;;;;14.58;38.77;99919.59;4952515;28;20238;-70
2021/06/02 06:01:36;;;;;;;10.43;2.40;;;;;;;14.64;38.80;99934.09;4962452;28;20058;-69
2021/06/02 06:04:55;;;;;;;8.90;2.10;;;;;;;14.83;38.24;99928.63;4937419;28;20149;-68
2021/06/02 06:07:48;;;;;;;8.82;2.20;;;;;;;14.78;36.91;99936.13;4963141;28;20551;-68
2021/06/02 06:10:48;;;;;;;12.07;1.95;;;;;;;14.94;37.47;99933.94;4930552;28;20090;-71
2021/06/02 06:13:42;;;;;;;7.78;1.90;;;;;;;14.85;37.07;99933.78;4922654;29;20056;-71
2021/06/02 06:16:26;;;;;;;9.70;2.10;;;;;;;14.74;37.17;99930.41;4966425;28;20043;-71
2021/06/02 06:19:25;;;;;;;8.18;1.98;;;;;;;14.74;36.85;99928.44;4967682;28;20526;-72
2021/06/02 06:22:08;;;;;;;5.45;1.80;;;;;;;14.83;36.96;99936.88;4977719;28;20145;-70
2021/06/02 06:24:41;;;;;;;12.77;2.10;;;;;;;14.98;37.24;99937.72;4963558;28;20043;-72
2021/06/02 06:27:11;;;;;;;9.57;2.30;;;;;;;14.95;36.78;99928.13;4963964;28;20065;-71
2021/06/02 06:29:48;;;;;;;6.13;2.00;;;;;;;15.08;36.43;99937.53;4962225;28;20054;-71
2021/06/02 06:32:16;;;;;;;5.32;1.83;;;;;;;15.18;36.69;99931.03;4962908;28;20042;-71
2021/06/02 06:34:46;;;;;;;7.63;2.20;;;;;;;15.24;36.99;99940.03;4976962;28;20515;-72
2021/06/02 06:37:14;;;;;;;9.48;2.17;;;;;;;15.28;36.62;99935.53;4977273;28;20089;-69
2021/06/02 06:39:49;;;;;;;9.43;2.40;;;;;;;15.25;36.86;99933.41;4962019;28;20134;-71
2021/06/02 06:42:20;;;;;;;7.40;2.45;;;;;;;15.38;37.09;99945.59;4956899;28;20049;-69
2021/06/02 06:44:49;;;;;;;14.98;2.40;;;;;;;15.49;36.89;99937.94;4963904;28;20051;-68
2021/06/02 06:47:17;;;;;;;12.38;2.38;;;;;;;15.52;36.89;99935.38;4962189;28;20083;-67
2021/06/02 06:49:49;;;;;;;18.42;2.58;;;;;;;15.69;36.92;99928.47;4961664;28;20051;-68
2021/06/02 06:52:24;;;;;;;8.75;2.55;;;;;;;15.80;36.55;99927.09;4966817;28;20054;-66
2021/06/02 06:54:54;;;;;;;12.60;2.25;;;;;;;15.83;36.22;99932.00;4961645;28;20043;-70
2021/06/02 06:57:21;;;;;;;14.00;2.58;;;;;;;15.76;35.53;99920.59;4962384;28;20508;-69
2021/06/02 06:59:48;;;;;;;;;;;;;;;15.81;35.74;99925.97;4978025;28;20043;-70
2021/06/02 07:02:15;;;;;;;8.20;2.10;;;;;;;15.73;34.74;99918.44;4977958;28;20016;-71
2021/06/02 07:04:42;;;;;;;18.17;2.90;;;;;;;15.82;35.24;99918.53;4977149;28;20182;-68
2021/06/02 07:07:10;;;;;;;8.38;2.33;;;;;;;15.89;35.16;99918.97;4976171;28;20491;-69
2021/06/02 07:09:36;;;;;;;;;;;;;;;15.68;35.51;99913.03;4962601;28;20043;-71
2021/06/02 07:12:06;;;;;;;22.58;2.38;;;;;;;15.73;34.82;99927.53;4962605;28;19937;-67
2021/06/02 07:14:35;;;;;;;9.45;1.92;;;;;;;15.81;34.90;99920.47;4961852;28;20051;-68
2021/06/02 07:17:05;;;;;;;8.90;1.90;;;;;;;15.87;34.12;99927.53;4963575;28;20066;-67
2021/06/02 07:19:35;;;;;;;5.13;1.80;;;;;;;15.85;34.36;99912.41;4962703;28;20079;-68
2021/06/02 07:22:02;;;;;;;7.22;2.15;;;;;;;16.01;34.54;99916.50;4963613;28;20416;-70
2021/06/02 07:24:29;;;;;;;8.27;2.10;;;;;;;16.15;34.61;99910.94;4977472;28;20134;-68
2021/06/02 07:26:56;;;;;;;12.32;1.90;;;;;;;16.15;34.09;99915.66;4961730;28;20063;-67
2021/06/02 07:29:25;;;;;;;7.60;2.08;;;;;;;16.14;33.94;99916.78;4962487;28;20066;-68
2021/06/02 07:31:51;;;;;;;10.05;1.95;;;;;;;15.97;34.54;99911.91;4962862;28;20094;-67
2021/06/02 07:34:19;;;;;;;8.00;2.20;;;;;;;16.23;34.43;99922.41;4962078;28;20129;-69
2021/06/02 07:36:45;;;;;;;12.30;2.25;;;;;;;16.19;33.97;99908.41;4945001;28;20066;-67
2021/06/02 07:39:12;;;;;;;11.48;2.15;;;;;;;16.34;34.43;99901.72;4975873;28;20066;-69
2021/06/02 07:41:38;;;;;;;5.53;2.15;;;;;;;16.58;34.31;99906.97;4962150;28;20522;-70
2021/06/02 07:44:05;;;;;;;6.60;2.00;;;;;;;16.64;33.33;99899.38;4961503;28;20057;-69
2021/06/02 07:46:34;;;;;;;8.77;2.00;;;;;;;16.50;33.98;99909.66;4962229;28;20408;-68
2021/06/02 07:49:01;;;;;;;6.55;2.03;;;;;;;16.55;33.91;99890.22;4959272;28;20060;-69
2021/06/02 07:51:27;;;;;;;12.07;2.70;;;;;;;16.68;34.44;99894.84;4962047;28;20074;-69
2021/06/02 07:53:53;;;;;;;7.40;2.15;;;;;;;16.87;33.98;99883.63;4973918;28;20055;-71
2021/06/02 07:56:19;;;;;;;11.80;2.60;;;;;;;16.81;34.21;99895.09;4962101;28;20090;-70
2021/06/02 07:58:45;;;;;;;13.93;2.72;;;;;;;16.69;34.34;99903.94;4962328;28;20141;-66
2021/06/02 08:01:11;;;;;;;6.20;2.15;;;;;;;16.76;33.94;99907.09;4960207;28;20042;-71
2021/06/02 08:03:38;;;;;;;16.05;2.05;;;;;;;16.77;33.43;99899.59;4961987;28;20047;-71
2021/06/02 08:06:05;;;;;;;11.25;2.10;;;;;;;16.94;33.32;99893.41;4958956;28;20046;-70
2021/06/02 08:08:31;;;;;;;8.30;2.17;;;;;;;16.79;33.58;99889.88;4961949;28;20043;-70
2021/06/02 08:10:57;;;;;;;8.88;2.55;;;;;;;16.96;33.72;99880.91;4960816;28;20090;-66
2021/06/02 08:13:23;;;;;;;10.90;2.38;;;;;;;17.00;33.26;99872.81;4961162;28;20050;-69
2021/06/02 08:15:49;;;;;;;7.90;2.10;;;;;;;16.97;34.26;99881.72;4974813;28;20146;-67
2021/06/02 08:18:15;;;;;;;12.75;2.42;;;;;;;17.03;33.82;99880.50;4961630;28;20058;-69
2021/06/02 08:20:43;;;;;;;12.90;2.28;;;;;;;16.72;33.67;99897.81;4961179;28;20420;-70
2021/06/02 08:23:10;;;;;;;9.95;2.25;;;;;;;16.82;34.22;99892.00;4959459;28;20055;-69
2021/06/02 08:25:36;;;;;;;12.75;2.40;;;;;;;16.73;34.03;99863.56;4977509;28;20049;-70
2021/06/02 08:28:02;;;;;;;9.75;2.10;;;;;;;16.90;33.87;99876.63;4966461;28;20478;-69
2021/06/02 08:30:29;;;;;;;11.65;2.47;;;;;;;16.96;34.01;99877.31;4965422;28;20050;-69
2021/06/02 08:32:55;;;;;;;6.45;1.98;;;;;;;16.99;33.93;99885.00;4968837;28;20055;-69
2021/06/02 08:35:22;;;;;;;6.95;2.17;;;;;;;17.28;34.46;99867.13;4979001;28;20043;-68
2021/06/02 08:37:50;;;;;;;10.93;2.50;;;;;;;17.55;34.29;99868.81;4966260;28;20173;-67
2021/06/02 08:40:16;;;;;;;;;;;;;;;17.55;33.70;99868.03;4963838;28;20418;-69
2021/06/02 08:42:43;;;;;;;15.90;2.40;;;;;;;17.44;33.76;99845.41;4963203;28;19926;-67
2021/06/02 08:45:12;;;;;;;9.98;1.85;;;;;;;17.31;33.54;99869.22;4964915;28;20047;-69
2021/06/02 08:47:41;;;;;;;6.63;1.95;;;;;;;17.38;33.12;99864.06;4963311;28;20046;-65
2021/06/02 08:50:09;;;;;;;13.90;2.10;;;;;;;17.23;33.36;99876.34;4977739;28;20043;-69
2021/06/02 08:52:36;;;;;;;7.22;2.20;;;;;;;17.28;33.90;99875.41;4976260;28;20049;-68
2021/06/02 08:55:05;;;;;;;9.00;2.50;;;;;;;17.43;33.74;99861.16;4964783;28;20042;-67
2021/06/02 08:57:32;;;;;;;9.98;2.60;;;;;;;17.48;33.47;99862.13;4964446;28;20050;-68
2021/06/02 08:59:59;;;;;;;14.20;2.55;;;;;;;17.54;32.86;99856.16;4964120;28;20035;-72
2021/06/02 09:02:25;;;;;;;11.20;2.40;;;;;;;17.57;33.13;99855.53;4963275;28;20061;-66
2021/06/02 09:04:51;;;;;;;9.90;2.40;;;;;;;17.56;32.75;99859.44;4963923;28;20039;-67
2021/06/02 09:07:17;;;;;;;11.07;2.60;;;;;;;17.96;32.66;99855.78;4964603;28;20062;-69
2021/06/02 09:09:43;;;;;;;4.60;1.70;;;;;;;18.08;31.81;99851.56;4969074;28;20047;-68
2021/06/02 09:12:15;;;;;;;5.88;1.90;;;;;;;18.22;32.13;99856.97;4968887;28;20089;-69
2021/06/02 09:14:42;;;;;;;5.25;1.80;;;;;;;18.29;31.98;99848.97;4964199;28;20063;-68
2021/06/02 09:17:09;;;;;;;;;;;;;;;18.39;32.34;99845.06;4964159;28;20050;-66
2021/06/02 09:19:38;;;;;;;7.05;2.00;;;;;;;18.52;31.77;99838.53;4963967;28;19937;-68
2021/06/02 09:22:06;;;;;;;5.63;2.22;;;;;;;18.70;31.67;99832.97;4965200;28;20199;-65
2021/06/02 09:24:50;;;;;;;10.18;2.30;;;;;;;18.55;31.86;99851.72;4979746;28;20043;-68
2021/06/02 09:27:39;;;;;;;14.32;2.10;;;;;;;18.51;31.46;99844.41;4970692;28;20408;-69
2021/06/02 09:30:06;;;;;;;9.95;2.00;;;;;;;18.62;32.07;99842.13;4964774;28;20048;-67
2021/06/02 09:32:41;;;;;;;8.35;2.10;;;;;;;18.27;32.25;99840.19;4964196;28;20067;-65
2021/06/02 09:35:08;;;;;;;10.52;1.98;;;;;;;18.30;31.51;99835.97;4979036;28;20042;-67
2021/06/02 09:37:46;;;;;;;6.78;2.28;;;;;;;18.57;31.39;99840.31;4969396;28;20558;-67
2021/06/02 09:40:19;;;;;;;5.18;2.00;;;;;;;18.52;31.04;99832.19;4966541;28;20638;-67
2021/06/02 09:42:47;;;;;;;12.65;2.00;;;;;;;18.55;31.25;99818.50;4965337;28;20053;-69
2021/06/02 09:45:14;;;;;;;5.05;2.03;;;;;;;18.59;31.13;99832.50;4979127;28;20465;-68
2021/06/02 09:47:42;;;;;;;10.35;2.10;;;;;;;18.54;31.43;99816.88;4975714;28;20055;-66
2021/06/02 09:50:10;;;;;;;12.57;2.28;;;;;;;18.91;31.13;99826.75;4964998;28;20038;-71
2021/06/02 09:52:44;;;;;;;13.73;2.35;;;;;;;19.20;30.29;99836.25;4964930;28;20110;-73
2021/06/02 09:55:15;;;;;;;5.78;1.90;;;;;;;19.20;29.89;99836.25;4964541;28;20054;-69
2021/06/02 09:57:42;;;;;;;8.00;2.35;;;;;;;18.82;30.77;99826.75;4962769;28;20050;-67
2021/06/02 10:00:12;;;;;;;6.65;1.90;;;;;;;18.78;31.54;99848.75;4963403;28;20567;-70
2021/06/02 10:02:42;;;;;;;10.10;2.00;;;;;;;18.64;31.76;99835.09;4965354;28;20050;-68
2021/06/02 10:05:11;;;;;;;11.00;2.00;;;;;;;18.25;32.10;99832.19;4963407;28;20447;-70
2021/06/02 10:07:47;;;;;;;8.98;2.10;;;;;;;18.12;32.52;99841.50;4963501;28;20055;-68
2021/06/02 10:10:15;;;;;;;7.93;2.05;;;;;;;18.06;32.94;99827.00;4964074;28;20058;-66
2021/06/02 10:12:57;;;;;;;8.95;2.10;;;;;;;18.20;32.29;99824.06;4964573;28;20149;-66
2021/06/02 10:15:29;;;;;;;15.30;2.35;;;;;;;18.58;31.88;99838.38;4961641;28;20046;-64
2021/06/02 10:17:55;;;;;;;8.07;2.13;;;;;;;18.80;31.01;99827.09;4963246;28;20570;-65
2021/06/02 10:20:22;;;;;;;8.17;2.10;;;;;;;18.62;31.44;99833.81;4962419;28;20589;-63
2021/06/02 10:22:52;;;;;;;12.85;3.00;;;;;;;18.44;31.49;99831.06;4962697;28;20364;-68
2021/06/02 10:25:20;;;;;;;8.55;2.55;;;;;;;18.46;31.87;99806.63;4963959;28;20130;-68
2021/06/02 10:27:48;;;;;;;9.52;2.05;;;;;;;18.54;31.52;99819.63;4967947;28;20426;-70
2021/06/02 10:30:16;;;;;;;5.68;1.95;;;;;;;18.39;31.53;99823.75;4977954;28;20069;-67
2021/06/02 10:32:43;;;;;;;7.35;1.73;;;;;;;18.48;31.78;99820.13;4960408;28;20516;-69
2021/06/02 10:35:09;;;;;;;;;;;;;;;18.53;31.73;99822.75;4969291;28;20431;-70
2021/06/02 10:37:40;;;;;;;7.22;2.10;;;;;;;18.51;31.91;99823.06;4977937;28;19981;-70
2021/06/02 10:40:10;;;;;;;10.73;2.28;;;;;;;18.50;32.77;99828.94;4962903;28;20062;-69
2021/06/02 10:42:39;;;;;;;11.85;2.35;;;;;;;18.50;32.58;99826.19;4963143;28;20055;-64
2021/06/02 10:45:11;;;;;;;12.30;2.28;;;;;;;18.61;32.57;99829.41;4962730;28;20428;-64
2021/06/02 10:47:37;;;;;;;9.82;2.42;;;;;;;18.51;32.43;99816.72;4963197;28;20043;-65
2021/06/02 10:50:05;;;;;;;10.23;2.55;;;;;;;18.69;32.42;99823.03;4962130;28;20380;-65
2021/06/02 10:52:39;;;;;;;7.47;2.00;;;;;;;18.84;31.91;99816.16;4962464;28;20070;-66
2021/06/02 10:55:34;;;;;;;7.97;2.10;;;;;;;19.06;31.76;99825.41;4963504;28;20079;-65
2021/06/02 10:58:34;;;;;;;8.85;2.00;;;;;;;19.04;31.94;99824.94;4963001;28;20046;-66
2021/06/02 11:01:16;;;;;;;10.48;2.22;;;;;;;18.69;32.51;99814.72;4901502;29;20696;-66
2021/06/02 11:03:44;;;;;;;6.85;2.40;;;;;;;18.55;32.71;99826.00;4902315;29;20063;-66
2021/06/02 11:06:38;;;;;;;7.10;2.05;;;;;;;18.50;32.77;99818.66;4937915;28;20053;-66
2021/06/02 11:09:21;;;;;;;6.13;2.20;;;;;;;18.61;32.58;99818.34;4961962;28;20055;-66
2021/06/02 11:11:48;;;;;;;13.10;2.60;;;;;;;18.85;32.45;99818.59;4963019;28;20055;-65
2021/06/02 11:14:26;;;;;;;6.97;2.17;;;;;;;19.23;32.37;99816.22;4962202;28;20061;-66
2021/06/02 11:17:18;;;;;;;11.32;2.30;;;;;;;19.58;31.59;99810.47;4963184;28;20049;-66
2021/06/02 11:19:52;;;;;;;5.75;1.95;;;;;;;19.40;31.18;99807.81;4962233;28;20162;-69
2021/06/02 11:22:22;;;;;;;8.00;2.25;;;;;;;19.25;31.81;99802.84;4961000;28;20046;-71
2021/06/02 11:24:58;;;;;;;8.20;2.30;;;;;;;19.35;32.02;99812.72;4977166;28;20047;-72
2021/06/02 11:27:41;;;;;;;11.93;2.53;;;;;;;18.97;32.22;99811.56;4963626;28;20138;-68
2021/06/02 11:30:18;;;;;;;7.43;2.50;;;;;;;18.87;32.66;99821.03;4962681;28;20418;-68
2021/06/02 11:32:56;;;;;;;7.70;2.50;;;;;;;18.66;33.55;99821.75;4961177;28;20051;-69
2021/06/02 11:35:36;;;;;;;;;;;;;;;18.53;34.32;99817.22;4978284;28;20507;-65
2021/06/02 11:38:04;;;;;;;8.75;2.53;;;;;;;18.48;34.75;99815.41;4962672;28;19926;-66
2021/06/02 11:40:30;;;;;;;13.43;2.80;;;;;;;18.47;34.19;99821.28;4962191;28;20050;-65
2021/06/02 11:42:56;;;;;;;13.63;2.67;;;;;;;18.38;33.82;99812.97;4967796;28;20145;-63
2021/06/02 11:45:26;;;;;;;11.88;2.60;;;;;;;18.52;34.25;99813.63;4962496;28;20302;-65
2021/06/02 11:47:59;;;;;;;9.68;2.53;;;;;;;18.41;34.03;99813.16;4960519;28;20055;-66
2021/06/02 11:50:25;;;;;;;7.55;2.08;;;;;;;18.48;33.80;99817.38;4962536;28;20455;-65
2021/06/02 11:52:55;;;;;;;9.88;2.33;;;;;;;18.56;33.80;99817.34;4960658;28;20411;-65
2021/06/02 11:55:24;;;;;;;12.45;2.38;;;;;;;18.59;33.75;99812.31;4960686;28;20150;-66
2021/06/02 11:57:51;;;;;;;8.57;2.30;;;;;;;18.50;33.87;99815.91;4962307;28;20051;-69
2021/06/02 12:00:20;;;;;;;11.88;2.40;;;;;;;18.58;33.17;99811.50;4961791;28;20047;-70
2021/06/02 12:02:51;;;;;;;5.40;1.92;;;;;;;18.56;32.50;99789.66;4960518;28;20051;-66
2021/06/02 12:05:19;;;;;;;12.32;2.08;;;;;;;18.92;32.41;99814.50;4963041;28;20055;-68
2021/06/02 12:07:48;;;;;;;10.65;2.50;;;;;;;19.45;31.72;99800.44;4962301;28;20055;-69
2021/06/02 12:10:15;;;;;;;10.20;2.28;;;;;;;19.43;31.70;99809.09;4962432;28;20054;-67